^^
Saratoga-Weather Station Historical Data
Daily Summary for February 14, 2018 Units:  Both    English   Metric
Daily Weekly Monthly Yearly Custom
  High: Low: Average:
Temperature: 50.4 °F /  10.2 °C 26.9 °F /  -2.8 °C 38 °F /  3.3 °C
Dew Point: 37.3 °F /  2.9 °C 21.3 °F /  -5.9 °C 31.4 °F /  -0.3 °C
Humidity: 88% 60% 78%
Wind Speed: 10.6mph /  17.1km/h - 3.4mph /  5.5km/h
Wind Gust: 18.4mph /  29.6km/h - -
Wind- - South
Pressure: 30.49 in /  1032.4 hPa 29.95 in /  1014.1 hPa -
Precipitation: 0.00 in /  0 mm    
Historical Graphs
 
 
Tabular Data for February 14, 2018
Time Temperature Dew Point Pressure Wind Wind Speed Wind Gust Humidity Rainfall Rate (Hourly) solar
00:03 26.9 °F /  -2.8 °C 21.3 °F /  -5.9 °C 30.48in /  1032.1hPa South 1.6mph /  2.6km/h 3.5mph /  5.6km/h 79% 0.00in /  0mm 0.0 W/m2
00:08 26.9 °F /  -2.8 °C 21.3 °F /  -5.9 °C 30.48in /  1032.1hPa South 1.2mph /  1.9km/h 2.3mph /  3.7km/h 79% 0.00in /  0mm 0.0 W/m2
00:13 27.0 °F /  -2.8 °C 21.7 °F /  -5.7 °C 30.49in /  1032.4hPa South 1.2mph /  1.9km/h 2.3mph /  3.7km/h 80% 0.00in /  0mm 0.0 W/m2
00:18 27.1 °F /  -2.7 °C 21.7 °F /  -5.7 °C 30.48in /  1032.1hPa South 0.5mph /  0.8km/h 1.2mph /  1.9km/h 80% 0.00in /  0mm 0.0 W/m2
00:23 27.1 °F /  -2.7 °C 21.7 °F /  -5.7 °C 30.48in /  1032.1hPa South 1.4mph /  2.3km/h 2.3mph /  3.7km/h 80% 0.00in /  0mm 0.0 W/m2
00:28 27.1 °F /  -2.7 °C 21.7 °F /  -5.7 °C 30.48in /  1032.1hPa South 0.6mph /  1km/h 1.2mph /  1.9km/h 80% 0.00in /  0mm 0.0 W/m2
00:33 27.1 °F /  -2.7 °C 21.7 °F /  -5.7 °C 30.48in /  1032.1hPa South 0.8mph /  1.3km/h 2.3mph /  3.7km/h 80% 0.00in /  0mm 0.0 W/m2
00:38 27.1 °F /  -2.7 °C 21.7 °F /  -5.7 °C 30.48in /  1032.1hPa South 1.1mph /  1.8km/h 2.3mph /  3.7km/h 80% 0.00in /  0mm 0.0 W/m2
00:43 27.1 °F /  -2.7 °C 21.7 °F /  -5.7 °C 30.47in /  1031.7hPa South 0.7mph /  1.1km/h 1.2mph /  1.9km/h 80% 0.00in /  0mm 0.0 W/m2
00:48 27.1 °F /  -2.7 °C 21.7 °F /  -5.7 °C 30.47in /  1031.7hPa South 1.3mph /  2.1km/h 2.3mph /  3.7km/h 80% 0.00in /  0mm 0.0 W/m2
00:53 27.1 °F /  -2.7 °C 21.7 °F /  -5.7 °C 30.47in /  1031.7hPa SSW 1.4mph /  2.3km/h 2.3mph /  3.7km/h 80% 0.00in /  0mm 0.0 W/m2
00:58 27.2 °F /  -2.7 °C 21.8 °F /  -5.7 °C 30.46in /  1031.4hPa SSE 1.7mph /  2.7km/h 2.3mph /  3.7km/h 80% 0.00in /  0mm 0.0 W/m2
01:03 27.3 °F /  -2.6 °C 21.9 °F /  -5.6 °C 30.45in /  1031hPa SSE 2.5mph /  4km/h 3.5mph /  5.6km/h 80% 0.00in /  0mm 0.0 W/m2
01:08 27.3 °F /  -2.6 °C 21.9 °F /  -5.6 °C 30.45in /  1031hPa SSE 1.8mph /  2.9km/h 4.0mph /  6.4km/h 80% 0.00in /  0mm 0.0 W/m2
01:13 27.4 °F /  -2.6 °C 22.3 °F /  -5.4 °C 30.45in /  1031hPa SSE 1.6mph /  2.6km/h 2.3mph /  3.7km/h 81% 0.00in /  0mm 0.0 W/m2
01:18 27.5 °F /  -2.5 °C 22.4 °F /  -5.3 °C 30.45in /  1031hPa SSE 2.1mph /  3.4km/h 3.5mph /  5.6km/h 81% 0.00in /  0mm 0.0 W/m2
01:23 27.6 °F /  -2.4 °C 22.5 °F /  -5.3 °C 30.44in /  1030.7hPa South 1.9mph /  3.1km/h 3.5mph /  5.6km/h 81% 0.00in /  0mm 0.0 W/m2
01:28 27.7 °F /  -2.4 °C 22.6 °F /  -5.2 °C 30.43in /  1030.4hPa SSE 3.2mph /  5.1km/h 4.6mph /  7.4km/h 81% 0.00in /  0mm 0.0 W/m2
01:33 27.8 °F /  -2.3 °C 22.7 °F /  -5.2 °C 30.43in /  1030.4hPa SSE 3.9mph /  6.3km/h 4.6mph /  7.4km/h 81% 0.00in /  0mm 0.0 W/m2
01:38 27.9 °F /  -2.3 °C 22.8 °F /  -5.1 °C 30.42in /  1030hPa South 2.6mph /  4.2km/h 3.5mph /  5.6km/h 81% 0.00in /  0mm 0.0 W/m2
01:43 27.9 °F /  -2.3 °C 22.8 °F /  -5.1 °C 30.42in /  1030hPa South 2.1mph /  3.4km/h 3.5mph /  5.6km/h 81% 0.00in /  0mm 0.0 W/m2
01:48 28.1 °F /  -2.2 °C 23.0 °F /  -5 °C 30.42in /  1030hPa South 3.0mph /  4.8km/h 3.5mph /  5.6km/h 81% 0.00in /  0mm 0.0 W/m2
01:53 28.1 °F /  -2.2 °C 23.0 °F /  -5 °C 30.42in /  1030hPa South 2.0mph /  3.2km/h 3.5mph /  5.6km/h 81% 0.00in /  0mm 0.0 W/m2
01:58 28.1 °F /  -2.2 °C 23.0 °F /  -5 °C 30.42in /  1030hPa SE 2.7mph /  4.3km/h 4.6mph /  7.4km/h 81% 0.00in /  0mm 0.0 W/m2
02:03 28.1 °F /  -2.2 °C 23.0 °F /  -5 °C 30.41in /  1029.7hPa SSE 2.5mph /  4km/h 3.5mph /  5.6km/h 81% 0.00in /  0mm 0.0 W/m2
02:08 28.1 °F /  -2.2 °C 23.0 °F /  -5 °C 30.41in /  1029.7hPa SSE 1.1mph /  1.8km/h 2.3mph /  3.7km/h 81% 0.00in /  0mm 0.0 W/m2
02:13 28.1 °F /  -2.2 °C 23.0 °F /  -5 °C 30.41in /  1029.7hPa SSW 1.9mph /  3.1km/h 3.5mph /  5.6km/h 81% 0.00in /  0mm 0.0 W/m2
02:18 28.1 °F /  -2.2 °C 23.0 °F /  -5 °C 30.41in /  1029.7hPa SW 2.2mph /  3.5km/h 3.5mph /  5.6km/h 81% 0.00in /  0mm 0.0 W/m2
02:23 28.1 °F /  -2.2 °C 23.3 °F /  -4.8 °C 30.40in /  1029.3hPa South 1.8mph /  2.9km/h 3.5mph /  5.6km/h 82% 0.00in /  0mm 0.0 W/m2
02:28 28.1 °F /  -2.2 °C 23.3 °F /  -4.8 °C 30.40in /  1029.3hPa South 1.5mph /  2.4km/h 3.5mph /  5.6km/h 82% 0.00in /  0mm 0.0 W/m2
02:33 28.1 °F /  -2.2 °C 23.3 °F /  -4.8 °C 30.40in /  1029.3hPa South 1.1mph /  1.8km/h 2.3mph /  3.7km/h 82% 0.00in /  0mm 0.0 W/m2
02:38 28.2 °F /  -2.1 °C 23.4 °F /  -4.8 °C 30.40in /  1029.3hPa SW 1.1mph /  1.8km/h 2.3mph /  3.7km/h 82% 0.00in /  0mm 0.0 W/m2
02:43 28.3 °F /  -2.1 °C 23.5 °F /  -4.7 °C 30.41in /  1029.7hPa SW 1.5mph /  2.4km/h 2.3mph /  3.7km/h 82% 0.00in /  0mm 0.0 W/m2
02:48 28.3 °F /  -2.1 °C 23.5 °F /  -4.7 °C 30.40in /  1029.3hPa SW 0.7mph /  1.1km/h 2.3mph /  3.7km/h 82% 0.00in /  0mm 0.0 W/m2
02:53 28.4 °F /  -2 °C 23.6 °F /  -4.7 °C 30.39in /  1029hPa SW 0.8mph /  1.3km/h 1.2mph /  1.9km/h 82% 0.00in /  0mm 0.0 W/m2
02:58 28.5 °F /  -1.9 °C 23.7 °F /  -4.6 °C 30.39in /  1029hPa SW 1.0mph /  1.6km/h 2.3mph /  3.7km/h 82% 0.00in /  0mm 0.0 W/m2
03:03 28.6 °F /  -1.9 °C 23.8 °F /  -4.6 °C 30.40in /  1029.3hPa SW 0.6mph /  1km/h 2.3mph /  3.7km/h 82% 0.00in /  0mm 0.0 W/m2
03:08 28.8 °F /  -1.8 °C 24.0 °F /  -4.4 °C 30.39in /  1029hPa SW 1.2mph /  1.9km/h 1.2mph /  1.9km/h 82% 0.00in /  0mm 0.0 W/m2
03:14 28.8 °F /  -1.8 °C 24.3 °F /  -4.3 °C 30.39in /  1029hPa SW 1.3mph /  2.1km/h 2.3mph /  3.7km/h 83% 0.00in /  0mm 0.0 W/m2
03:19 28.8 °F /  -1.8 °C 24.3 °F /  -4.3 °C 30.38in /  1028.7hPa SSE 1.5mph /  2.4km/h 3.5mph /  5.6km/h 83% 0.00in /  0mm 0.0 W/m2
03:24 28.9 °F /  -1.7 °C 24.4 °F /  -4.2 °C 30.38in /  1028.7hPa SSE 0.2mph /  0.3km/h 1.2mph /  1.9km/h 83% 0.00in /  0mm 0.0 W/m2
03:29 28.9 °F /  -1.7 °C 24.4 °F /  -4.2 °C 30.38in /  1028.7hPa Calm   1.2mph /  1.9km/h 83% 0.00in /  0mm 0.0 W/m2
03:34 28.9 °F /  -1.7 °C 24.4 °F /  -4.2 °C 30.38in /  1028.7hPa SSE 0.8mph /  1.3km/h 1.2mph /  1.9km/h 83% 0.00in /  0mm 0.0 W/m2
03:39 29.0 °F /  -1.7 °C 24.5 °F /  -4.2 °C 30.37in /  1028.3hPa SSE 1.1mph /  1.8km/h 2.3mph /  3.7km/h 83% 0.00in /  0mm 0.0 W/m2
03:44 29.1 °F /  -1.6 °C 24.6 °F /  -4.1 °C 30.36in /  1028hPa SSE 1.2mph /  1.9km/h 2.3mph /  3.7km/h 83% 0.00in /  0mm 0.0 W/m2
03:49 29.2 °F /  -1.6 °C 24.7 °F /  -4.1 °C 30.36in /  1028hPa SSE 1.5mph /  2.4km/h 2.3mph /  3.7km/h 83% 0.00in /  0mm 0.0 W/m2
03:54 29.2 °F /  -1.6 °C 24.7 °F /  -4.1 °C 30.35in /  1027.7hPa SSE 1.7mph /  2.7km/h 2.3mph /  3.7km/h 83% 0.00in /  0mm 0.0 W/m2
03:59 29.3 °F /  -1.5 °C 24.8 °F /  -4 °C 30.35in /  1027.7hPa SSE 1.3mph /  2.1km/h 2.3mph /  3.7km/h 83% 0.00in /  0mm 0.0 W/m2
04:04 29.3 °F /  -1.5 °C 24.8 °F /  -4 °C 30.34in /  1027.3hPa SSE 1.6mph /  2.6km/h 2.3mph /  3.7km/h 83% 0.00in /  0mm 0.0 W/m2
04:09 29.4 °F /  -1.4 °C 24.9 °F /  -3.9 °C 30.34in /  1027.3hPa SSE 1.7mph /  2.7km/h 2.3mph /  3.7km/h 83% 0.00in /  0mm 0.0 W/m2
04:14 29.4 °F /  -1.4 °C 24.9 °F /  -3.9 °C 30.33in /  1027hPa SSE 1.4mph /  2.3km/h 2.3mph /  3.7km/h 83% 0.00in /  0mm 0.0 W/m2
04:19 29.5 °F /  -1.4 °C 25.0 °F /  -3.9 °C 30.34in /  1027.3hPa SSE 1.0mph /  1.6km/h 2.3mph /  3.7km/h 83% 0.00in /  0mm 0.0 W/m2
04:24 29.5 °F /  -1.4 °C 25.0 °F /  -3.9 °C 30.34in /  1027.3hPa SSE 0.2mph /  0.3km/h 1.2mph /  1.9km/h 83% 0.00in /  0mm 0.0 W/m2
04:29 29.7 °F /  -1.3 °C 25.5 °F /  -3.6 °C 30.34in /  1027.3hPa SSE 0.9mph /  1.4km/h 1.2mph /  1.9km/h 84% 0.00in /  0mm 0.0 W/m2
04:34 29.8 °F /  -1.2 °C 25.6 °F /  -3.6 °C 30.34in /  1027.3hPa SSE 0.9mph /  1.4km/h 1.2mph /  1.9km/h 84% 0.00in /  0mm 0.0 W/m2
04:39 29.9 °F /  -1.2 °C 25.7 °F /  -3.5 °C 30.34in /  1027.3hPa SSE 1.5mph /  2.4km/h 2.0mph /  3.2km/h 84% 0.00in /  0mm 0.0 W/m2
04:44 30.0 °F /  -1.1 °C 25.5 °F /  -3.6 °C 30.34in /  1027.3hPa SSW 2.0mph /  3.2km/h 3.5mph /  5.6km/h 83% 0.00in /  0mm 0.0 W/m2
04:49 30.1 °F /  -1.1 °C 25.8 °F /  -3.4 °C 30.34in /  1027.3hPa SSW 2.2mph /  3.5km/h 3.5mph /  5.6km/h 84% 0.00in /  0mm 0.0 W/m2
04:55 30.1 °F /  -1.1 °C 25.6 °F /  -3.6 °C 30.33in /  1027hPa SSE 2.3mph /  3.7km/h 3.5mph /  5.6km/h 83% 0.00in /  0mm 0.0 W/m2
05:00 30.1 °F /  -1.1 °C 25.6 °F /  -3.6 °C 30.33in /  1027hPa South 1.6mph /  2.6km/h 2.3mph /  3.7km/h 83% 0.00in /  0mm 0.0 W/m2
05:05 30.2 °F /  -1 °C 25.9 °F /  -3.4 °C 30.33in /  1027hPa South 0.9mph /  1.4km/h 2.3mph /  3.7km/h 84% 0.00in /  0mm 0.0 W/m2
05:10 30.2 °F /  -1 °C 25.9 °F /  -3.4 °C 30.33in /  1027hPa South 0.9mph /  1.4km/h 2.3mph /  3.7km/h 84% 0.00in /  0mm 0.0 W/m2
05:15 30.2 °F /  -1 °C 25.9 °F /  -3.4 °C 30.32in /  1026.6hPa South 1.2mph /  1.9km/h 2.3mph /  3.7km/h 84% 0.00in /  0mm 0.0 W/m2
05:20 30.3 °F /  -0.9 °C 26.0 °F /  -3.3 °C 30.32in /  1026.6hPa SE 2.8mph /  4.5km/h 3.5mph /  5.6km/h 84% 0.00in /  0mm 0.0 W/m2
05:25 30.4 °F /  -0.9 °C 26.1 °F /  -3.3 °C 30.31in /  1026.3hPa SE 1.6mph /  2.6km/h 2.3mph /  3.7km/h 84% 0.00in /  0mm 0.0 W/m2
05:30 30.5 °F /  -0.8 °C 26.2 °F /  -3.2 °C 30.31in /  1026.3hPa SSE 3.0mph /  4.8km/h 3.5mph /  5.6km/h 84% 0.00in /  0mm 0.0 W/m2
05:35 30.6 °F /  -0.8 °C 26.3 °F /  -3.2 °C 30.30in /  1026hPa SE 3.7mph /  6km/h 5.0mph /  8km/h 84% 0.00in /  0mm 0.0 W/m2
05:40 30.8 °F /  -0.7 °C 26.8 °F /  -2.9 °C 30.31in /  1026.3hPa SSW 3.2mph /  5.1km/h 4.0mph /  6.4km/h 85% 0.00in /  0mm 0.0 W/m2
05:45 31.1 °F /  -0.5 °C 27.1 °F /  -2.7 °C 30.31in /  1026.3hPa SSW 1.0mph /  1.6km/h 2.3mph /  3.7km/h 85% 0.00in /  0mm 0.0 W/m2
05:50 31.3 °F /  -0.4 °C 27.3 °F /  -2.6 °C 30.31in /  1026.3hPa SW 2.2mph /  3.5km/h 3.5mph /  5.6km/h 85% 0.00in /  0mm 0.0 W/m2
05:55 31.4 °F /  -0.3 °C 27.4 °F /  -2.6 °C 30.31in /  1026.3hPa WSW 1.7mph /  2.7km/h 2.3mph /  3.7km/h 85% 0.00in /  0mm 0.0 W/m2
06:00 31.5 °F /  -0.3 °C 27.5 °F /  -2.5 °C 30.32in /  1026.6hPa WSW 2.6mph /  4.2km/h 3.5mph /  5.6km/h 85% 0.00in /  0mm 0.0 W/m2
06:05 31.5 °F /  -0.3 °C 27.5 °F /  -2.5 °C 30.31in /  1026.3hPa WSW 1.2mph /  1.9km/h 2.3mph /  3.7km/h 85% 0.00in /  0mm 0.0 W/m2
06:10 31.5 °F /  -0.3 °C 27.5 °F /  -2.5 °C 30.31in /  1026.3hPa SW 2.6mph /  4.2km/h 3.5mph /  5.6km/h 85% 0.00in /  0mm 0.0 W/m2
06:15 31.6 °F /  -0.2 °C 27.6 °F /  -2.4 °C 30.31in /  1026.3hPa SSE 2.7mph /  4.3km/h 3.5mph /  5.6km/h 85% 0.00in /  0mm 0.0 W/m2
06:20 31.6 °F /  -0.2 °C 27.6 °F /  -2.4 °C 30.30in /  1026hPa SE 3.6mph /  5.8km/h 4.6mph /  7.4km/h 85% 0.00in /  0mm 0.0 W/m2
06:25 31.7 °F /  -0.2 °C 28.0 °F /  -2.2 °C 30.30in /  1026hPa SSE 4.3mph /  6.9km/h 8.1mph /  13km/h 86% 0.00in /  0mm 0.0 W/m2
06:30 31.7 °F /  -0.2 °C 28.0 °F /  -2.2 °C 30.30in /  1026hPa SSE 2.6mph /  4.2km/h 6.9mph /  11.1km/h 86% 0.00in /  0mm 0.0 W/m2
06:35 31.8 °F /  -0.1 °C 28.1 °F /  -2.2 °C 30.30in /  1026hPa SSW 4.6mph /  7.4km/h 6.0mph /  9.7km/h 86% 0.00in /  0mm 0.0 W/m2
06:40 31.9 °F /  -0.1 °C 28.2 °F /  -2.1 °C 30.30in /  1026hPa South 3.2mph /  5.1km/h 4.6mph /  7.4km/h 86% 0.00in /  0mm 0.0 W/m2
06:45 31.9 °F /  -0.1 °C 28.2 °F /  -2.1 °C 30.29in /  1025.6hPa SSE 5.3mph /  8.5km/h 6.9mph /  11.1km/h 86% 0.00in /  0mm 0.0 W/m2
06:50 32.0 °F /  0 °C 28.6 °F /  -1.9 °C 30.29in /  1025.6hPa SE 5.0mph /  8km/h 5.8mph /  9.3km/h 87% 0.00in /  0mm 0.0 W/m2
06:55 32.1 °F /  0.1 °C 28.7 °F /  -1.8 °C 30.29in /  1025.6hPa South 5.3mph /  8.5km/h 9.2mph /  14.8km/h 87% 0.00in /  0mm 0.0 W/m2
07:00 32.1 °F /  0.1 °C 28.7 °F /  -1.8 °C 30.29in /  1025.6hPa SE 2.6mph /  4.2km/h 4.0mph /  6.4km/h 87% 0.00in /  0mm 0.0 W/m2
07:05 32.2 °F /  0.1 °C 28.8 °F /  -1.8 °C 30.29in /  1025.6hPa SSE 5.2mph /  8.4km/h 7.0mph /  11.3km/h 87% 0.00in /  0mm 0.0 W/m2
07:10 32.3 °F /  0.2 °C 28.9 °F /  -1.7 °C 30.28in /  1025.3hPa SE 4.4mph /  7.1km/h 6.9mph /  11.1km/h 87% 0.00in /  0mm 5.0 W/m2
07:15 32.3 °F /  0.2 °C 28.9 °F /  -1.7 °C 30.28in /  1025.3hPa South 3.5mph /  5.6km/h 5.8mph /  9.3km/h 87% 0.00in /  0mm 9.0 W/m2
07:20 32.4 °F /  0.2 °C 29.0 °F /  -1.7 °C 30.28in /  1025.3hPa SW 1.5mph /  2.4km/h 4.6mph /  7.4km/h 87% 0.00in /  0mm 12.0 W/m2
07:25 32.5 °F /  0.3 °C 29.1 °F /  -1.6 °C 30.28in /  1025.3hPa SE 2.9mph /  4.7km/h 4.6mph /  7.4km/h 87% 0.00in /  0mm 12.0 W/m2
07:30 32.5 °F /  0.3 °C 29.3 °F /  -1.5 °C 30.28in /  1025.3hPa SSE 3.7mph /  6km/h 5.0mph /  8km/h 88% 0.00in /  0mm 16.0 W/m2
07:35 32.6 °F /  0.3 °C 29.4 °F /  -1.4 °C 30.28in /  1025.3hPa SE 4.0mph /  6.4km/h 8.1mph /  13km/h 88% 0.00in /  0mm 16.0 W/m2
07:40 32.7 °F /  0.4 °C 29.5 °F /  -1.4 °C 30.28in /  1025.3hPa SSE 2.4mph /  3.9km/h 4.0mph /  6.4km/h 88% 0.00in /  0mm 16.0 W/m2
07:45 32.8 °F /  0.4 °C 29.6 °F /  -1.3 °C 30.27in /  1024.9hPa SE 4.3mph /  6.9km/h 5.8mph /  9.3km/h 88% 0.00in /  0mm 19.0 W/m2
07:51 32.8 °F /  0.4 °C 29.6 °F /  -1.3 °C 30.27in /  1024.9hPa South 3.6mph /  5.8km/h 8.1mph /  13km/h 88% 0.00in /  0mm 39.0 W/m2
07:56 32.9 °F /  0.5 °C 29.7 °F /  -1.3 °C 30.27in /  1024.9hPa SSE 4.1mph /  6.6km/h 6.9mph /  11.1km/h 88% 0.00in /  0mm 65.0 W/m2
08:01 33.1 °F /  0.6 °C 29.9 °F /  -1.2 °C 30.27in /  1024.9hPa SSE 3.5mph /  5.6km/h 7.0mph /  11.3km/h 88% 0.00in /  0mm 58.0 W/m2
08:06 33.2 °F /  0.7 °C 30.0 °F /  -1.1 °C 30.27in /  1024.9hPa SSE 4.7mph /  7.6km/h 8.1mph /  13km/h 88% 0.00in /  0mm 56.0 W/m2
08:11 33.3 °F /  0.7 °C 30.1 °F /  -1.1 °C 30.27in /  1024.9hPa South 1.8mph /  2.9km/h 3.5mph /  5.6km/h 88% 0.00in /  0mm 42.0 W/m2
08:16 33.4 °F /  0.8 °C 30.2 °F /  -1 °C 30.28in /  1025.3hPa SSE 3.2mph /  5.1km/h 5.8mph /  9.3km/h 88% 0.00in /  0mm 37.0 W/m2
08:21 33.6 °F /  0.9 °C 30.1 °F /  -1.1 °C 30.28in /  1025.3hPa South 3.6mph /  5.8km/h 5.8mph /  9.3km/h 87% 0.00in /  0mm 42.0 W/m2
08:26 33.7 °F /  0.9 °C 30.2 °F /  -1 °C 30.28in /  1025.3hPa SSW 3.0mph /  4.8km/h 5.8mph /  9.3km/h 87% 0.00in /  0mm 51.0 W/m2
08:31 33.7 °F /  0.9 °C 30.2 °F /  -1 °C 30.27in /  1024.9hPa SSE 4.9mph /  7.9km/h 9.2mph /  14.8km/h 87% 0.00in /  0mm 60.0 W/m2
08:36 33.9 °F /  1.1 °C 30.4 °F /  -0.9 °C 30.27in /  1024.9hPa South 4.8mph /  7.7km/h 8.1mph /  13km/h 87% 0.00in /  0mm 69.0 W/m2
08:41 33.9 °F /  1.1 °C 30.4 °F /  -0.9 °C 30.27in /  1024.9hPa SSW 4.5mph /  7.2km/h 6.9mph /  11.1km/h 87% 0.00in /  0mm 56.0 W/m2
08:46 33.9 °F /  1.1 °C 30.4 °F /  -0.9 °C 30.26in /  1024.6hPa SSE 3.9mph /  6.3km/h 6.0mph /  9.7km/h 87% 0.00in /  0mm 58.0 W/m2
08:51 33.9 °F /  1.1 °C 30.4 °F /  -0.9 °C 30.26in /  1024.6hPa WSW 3.4mph /  5.5km/h 8.1mph /  13km/h 87% 0.00in /  0mm 63.0 W/m2
08:56 34.0 °F /  1.1 °C 30.5 °F /  -0.8 °C 30.25in /  1024.3hPa SE 5.5mph /  8.9km/h 6.9mph /  11.1km/h 87% 0.00in /  0mm 69.0 W/m2
09:01 34.1 °F /  1.2 °C 30.6 °F /  -0.8 °C 30.25in /  1024.3hPa SE 5.3mph /  8.5km/h 7.0mph /  11.3km/h 87% 0.00in /  0mm 88.0 W/m2
09:06 34.2 °F /  1.2 °C 30.7 °F /  -0.7 °C 30.25in /  1024.3hPa SSE 3.5mph /  5.6km/h 4.6mph /  7.4km/h 87% 0.00in /  0mm 97.0 W/m2
09:11 34.4 °F /  1.3 °C 30.9 °F /  -0.6 °C 30.25in /  1024.3hPa South 4.8mph /  7.7km/h 6.9mph /  11.1km/h 87% 0.00in /  0mm 98.0 W/m2
09:16 34.6 °F /  1.4 °C 31.1 °F /  -0.5 °C 30.24in /  1023.9hPa SSE 5.7mph /  9.2km/h 6.9mph /  11.1km/h 87% 0.00in /  0mm 116.0 W/m2
09:21 34.7 °F /  1.5 °C 31.2 °F /  -0.4 °C 30.24in /  1023.9hPa SSE 5.7mph /  9.2km/h 7.0mph /  11.3km/h 87% 0.00in /  0mm 118.0 W/m2
09:26 34.8 °F /  1.6 °C 31.0 °F /  -0.6 °C 30.24in /  1023.9hPa SSW 4.2mph /  6.8km/h 5.8mph /  9.3km/h 86% 0.00in /  0mm 105.0 W/m2
09:31 35.0 °F /  1.7 °C 31.2 °F /  -0.4 °C 30.24in /  1023.9hPa South 6.6mph /  10.6km/h 8.1mph /  13km/h 86% 0.00in /  0mm 114.0 W/m2
09:36 35.1 °F /  1.7 °C 31.3 °F /  -0.4 °C 30.24in /  1023.9hPa SSE 4.3mph /  6.9km/h 8.1mph /  13km/h 86% 0.00in /  0mm 114.0 W/m2
09:41 35.3 °F /  1.8 °C 31.5 °F /  -0.3 °C 30.23in /  1023.6hPa SE 4.9mph /  7.9km/h 6.9mph /  11.1km/h 86% 0.00in /  0mm 118.0 W/m2
09:46 35.5 °F /  1.9 °C 31.7 °F /  -0.2 °C 30.23in /  1023.6hPa SSE 2.8mph /  4.5km/h 4.6mph /  7.4km/h 86% 0.00in /  0mm 107.0 W/m2
09:51 35.6 °F /  2 °C 31.5 °F /  -0.3 °C 30.23in /  1023.6hPa SSE 5.2mph /  8.4km/h 8.1mph /  13km/h 85% 0.00in /  0mm 104.0 W/m2
09:56 35.7 °F /  2.1 °C 31.6 °F /  -0.2 °C 30.23in /  1023.6hPa SSE 6.8mph /  10.9km/h 10.4mph /  16.7km/h 85% 0.00in /  0mm 91.0 W/m2
10:01 35.9 °F /  2.2 °C 31.8 °F /  -0.1 °C 30.23in /  1023.6hPa SSE 5.0mph /  8km/h 6.9mph /  11.1km/h 85% 0.00in /  0mm 91.0 W/m2
10:06 36.0 °F /  2.2 °C 31.6 °F /  -0.2 °C 30.22in /  1023.2hPa SE 6.2mph /  10km/h 6.9mph /  11.1km/h 84% 0.00in /  0mm 93.0 W/m2
10:11 36.1 °F /  2.3 °C 31.7 °F /  -0.2 °C 30.22in /  1023.2hPa SSE 4.1mph /  6.6km/h 5.8mph /  9.3km/h 84% 0.00in /  0mm 116.0 W/m2
10:16 36.3 °F /  2.4 °C 31.9 °F /  -0.1 °C 30.22in /  1023.2hPa SSW 5.0mph /  8km/h 5.8mph /  9.3km/h 84% 0.00in /  0mm 104.0 W/m2
10:21 36.5 °F /  2.5 °C 32.1 °F /  0.1 °C 30.22in /  1023.2hPa South 2.5mph /  4km/h 5.0mph /  8km/h 84% 0.00in /  0mm 109.0 W/m2
10:26 36.6 °F /  2.6 °C 31.9 °F /  -0.1 °C 30.21in /  1022.9hPa SSE 5.2mph /  8.4km/h 5.2mph /  8.4km/h 83% 0.00in /  0mm 120.0 W/m2
10:31 36.7 °F /  2.6 °C 32.0 °F /  0 °C 30.21in /  1022.9hPa South 3.3mph /  5.3km/h 5.0mph /  8km/h 83% 0.00in /  0mm 137.0 W/m2
10:36 36.9 °F /  2.7 °C 32.2 °F /  0.1 °C 30.21in /  1022.9hPa South 2.8mph /  4.5km/h 6.9mph /  11.1km/h 83% 0.00in /  0mm 139.0 W/m2
10:41 37.1 °F /  2.8 °C 32.1 °F /  0.1 °C 30.21in /  1022.9hPa SSW 5.0mph /  8km/h 7.0mph /  11.3km/h 82% 0.00in /  0mm 130.0 W/m2
10:46 37.3 °F /  2.9 °C 32.3 °F /  0.2 °C 30.21in /  1022.9hPa SSW 3.6mph /  5.8km/h 3.6mph /  5.8km/h 82% 0.00in /  0mm 123.0 W/m2
10:52 37.4 °F /  3 °C 32.4 °F /  0.2 °C 30.20in /  1022.6hPa SSE 3.1mph /  5km/h 7.0mph /  11.3km/h 82% 0.00in /  0mm 128.0 W/m2
10:57 37.6 °F /  3.1 °C 32.3 °F /  0.2 °C 30.20in /  1022.6hPa South 4.0mph /  6.4km/h 6.9mph /  11.1km/h 81% 0.00in /  0mm 132.0 W/m2
11:02 37.7 °F /  3.2 °C 32.4 °F /  0.2 °C 30.20in /  1022.6hPa SSE 4.6mph /  7.4km/h 6.9mph /  11.1km/h 81% 0.00in /  0mm 137.0 W/m2
11:07 37.8 °F /  3.2 °C 32.2 °F /  0.1 °C 30.19in /  1022.2hPa South 5.2mph /  8.4km/h 7.0mph /  11.3km/h 80% 0.00in /  0mm 141.0 W/m2
11:12 37.8 °F /  3.2 °C 32.2 °F /  0.1 °C 30.19in /  1022.2hPa SE 5.7mph /  9.2km/h 10.4mph /  16.7km/h 80% 0.00in /  0mm 160.0 W/m2
11:17 37.9 °F /  3.3 °C 32.3 °F /  0.2 °C 30.18in /  1021.9hPa South 5.1mph /  8.2km/h 9.2mph /  14.8km/h 80% 0.00in /  0mm 171.0 W/m2
11:22 38.1 °F /  3.4 °C 32.5 °F /  0.3 °C 30.18in /  1021.9hPa SSW 2.7mph /  4.3km/h 3.5mph /  5.6km/h 80% 0.00in /  0mm 192.0 W/m2
11:27 38.4 °F /  3.6 °C 32.8 °F /  0.4 °C 30.18in /  1021.9hPa SSW 5.5mph /  8.9km/h 10.4mph /  16.7km/h 80% 0.00in /  0mm 213.0 W/m2
11:32 38.4 °F /  3.6 °C 32.5 °F /  0.3 °C 30.17in /  1021.6hPa SW 5.9mph /  9.5km/h 10.4mph /  16.7km/h 79% 0.00in /  0mm 243.0 W/m2
11:37 38.5 °F /  3.6 °C 32.6 °F /  0.3 °C 30.17in /  1021.6hPa SSW 4.5mph /  7.2km/h 5.8mph /  9.3km/h 79% 0.00in /  0mm 271.0 W/m2
11:42 38.8 °F /  3.8 °C 32.8 °F /  0.4 °C 30.16in /  1021.2hPa SSW 6.6mph /  10.6km/h 10.4mph /  16.7km/h 79% 0.00in /  0mm 313.0 W/m2
11:47 39.2 °F /  4 °C 32.9 °F /  0.5 °C 30.16in /  1021.2hPa SSW 4.1mph /  6.6km/h 6.9mph /  11.1km/h 78% 0.00in /  0mm 510.0 W/m2
11:52 39.7 °F /  4.3 °C 33.1 °F /  0.6 °C 30.16in /  1021.2hPa SSW 7.7mph /  12.4km/h 11.5mph /  18.5km/h 77% 0.00in /  0mm 301.0 W/m2
11:57 39.6 °F /  4.2 °C 33.0 °F /  0.6 °C 30.15in /  1020.9hPa SSE 5.1mph /  8.2km/h 6.9mph /  11.1km/h 77% 0.00in /  0mm 341.0 W/m2
12:02 40.2 °F /  4.6 °C 33.6 °F /  0.9 °C 30.15in /  1020.9hPa SW 6.1mph /  9.8km/h 8.1mph /  13km/h 77% 0.00in /  0mm 373.0 W/m2
12:07 40.5 °F /  4.7 °C 33.5 °F /  0.8 °C 30.15in /  1020.9hPa SW 5.9mph /  9.5km/h 9.2mph /  14.8km/h 76% 0.00in /  0mm 461.0 W/m2
12:12 40.7 °F /  4.8 °C 33.4 °F /  0.8 °C 30.15in /  1020.9hPa SW 5.9mph /  9.5km/h 7.0mph /  11.3km/h 75% 0.00in /  0mm 380.0 W/m2
12:17 40.9 °F /  4.9 °C 33.6 °F /  0.9 °C 30.14in /  1020.5hPa SW 6.4mph /  10.3km/h 10.4mph /  16.7km/h 75% 0.00in /  0mm 501.0 W/m2
12:22 41.5 °F /  5.3 °C 34.2 °F /  1.2 °C 30.14in /  1020.5hPa South 5.4mph /  8.7km/h 7.0mph /  11.3km/h 75% 0.00in /  0mm 561.0 W/m2
12:27 42.4 °F /  5.8 °C 34.7 °F /  1.5 °C 30.13in /  1020.2hPa West 4.0mph /  6.4km/h 8.0mph /  12.9km/h 74% 0.00in /  0mm 601.0 W/m2
12:32 43.1 °F /  6.2 °C 34.7 °F /  1.5 °C 30.13in /  1020.2hPa SSE 4.5mph /  7.2km/h 7.0mph /  11.3km/h 72% 0.00in /  0mm 592.0 W/m2
12:37 43.6 °F /  6.4 °C 34.8 °F /  1.6 °C 30.12in /  1019.9hPa SE 5.9mph /  9.5km/h 10.0mph /  16.1km/h 71% 0.00in /  0mm 589.0 W/m2
12:42 44.0 °F /  6.7 °C 35.2 °F /  1.8 °C 30.12in /  1019.9hPa SW 5.2mph /  8.4km/h 8.0mph /  12.9km/h 71% 0.00in /  0mm 589.0 W/m2
12:47 43.8 °F /  6.6 °C 34.6 °F /  1.4 °C 30.12in /  1019.9hPa SSE 4.4mph /  7.1km/h 8.1mph /  13km/h 70% 0.00in /  0mm 585.0 W/m2
12:52 44.6 °F /  7 °C 35.4 °F /  1.9 °C 30.11in /  1019.5hPa SW 5.8mph /  9.3km/h 8.1mph /  13km/h 70% 0.00in /  0mm 573.0 W/m2
12:57 44.8 °F /  7.1 °C 35.2 °F /  1.8 °C 30.11in /  1019.5hPa SW 5.8mph /  9.3km/h 9.2mph /  14.8km/h 69% 0.00in /  0mm 580.0 W/m2
13:02 45.4 °F /  7.4 °C 35.5 °F /  1.9 °C 30.10in /  1019.2hPa SSE 5.9mph /  9.5km/h 9.0mph /  14.5km/h 68% 0.00in /  0mm 571.0 W/m2
13:07 45.5 °F /  7.5 °C 35.5 °F /  1.9 °C 30.10in /  1019.2hPa SSW 6.6mph /  10.6km/h 9.0mph /  14.5km/h 68% 0.00in /  0mm 563.0 W/m2
13:12 45.9 °F /  7.7 °C 35.9 °F /  2.2 °C 30.10in /  1019.2hPa SSW 4.8mph /  7.7km/h 8.0mph /  12.9km/h 68% 0.00in /  0mm 557.0 W/m2
13:17 46.3 °F /  7.9 °C 36.3 °F /  2.4 °C 30.09in /  1018.8hPa South 5.8mph /  9.3km/h 8.0mph /  12.9km/h 68% 0.00in /  0mm 564.0 W/m2
13:22 46.9 °F /  8.3 °C 36.1 °F /  2.3 °C 30.09in /  1018.8hPa SW 7.2mph /  11.6km/h 10.0mph /  16.1km/h 66% 0.00in /  0mm 561.0 W/m2
13:27 47.1 °F /  8.4 °C 36.7 °F /  2.6 °C 30.08in /  1018.5hPa WSW 4.9mph /  7.9km/h 9.0mph /  14.5km/h 67% 0.00in /  0mm 557.0 W/m2
13:32 47.7 °F /  8.7 °C 36.9 °F /  2.7 °C 30.08in /  1018.5hPa SW 4.5mph /  7.2km/h 5.8mph /  9.3km/h 66% 0.00in /  0mm 547.0 W/m2
13:37 48.3 °F /  9.1 °C 36.7 °F /  2.6 °C 30.08in /  1018.5hPa SSE 5.2mph /  8.4km/h 10.4mph /  16.7km/h 64% 0.00in /  0mm 499.0 W/m2
13:42 48.6 °F /  9.2 °C 37.0 °F /  2.8 °C 30.08in /  1018.5hPa SSW 6.7mph /  10.8km/h 9.2mph /  14.8km/h 64% 0.00in /  0mm 420.0 W/m2
13:47 48.7 °F /  9.3 °C 37.1 °F /  2.8 °C 30.08in /  1018.5hPa SW 4.7mph /  7.6km/h 6.9mph /  11.1km/h 64% 0.00in /  0mm 348.0 W/m2
13:52 48.9 °F /  9.4 °C 36.9 °F /  2.7 °C 30.07in /  1018.2hPa WSW 7.4mph /  11.9km/h 10.4mph /  16.7km/h 63% 0.00in /  0mm 255.0 W/m2
13:57 49.1 °F /  9.5 °C 37.0 °F /  2.8 °C 30.07in /  1018.2hPa SW 5.3mph /  8.5km/h 9.0mph /  14.5km/h 63% 0.00in /  0mm 253.0 W/m2
14:02 49.5 °F /  9.7 °C 37.0 °F /  2.8 °C 30.07in /  1018.2hPa SSW 4.2mph /  6.8km/h 6.9mph /  11.1km/h 62% 0.00in /  0mm 241.0 W/m2
14:07 49.8 °F /  9.9 °C 37.3 °F /  2.9 °C 30.07in /  1018.2hPa SSW 6.9mph /  11.1km/h 10.4mph /  16.7km/h 62% 0.00in /  0mm 448.0 W/m2
14:13 49.7 °F /  9.8 °C 37.2 °F /  2.9 °C 30.07in /  1018.2hPa SSE 7.0mph /  11.3km/h 10.4mph /  16.7km/h 62% 0.00in /  0mm 308.0 W/m2
14:18 49.4 °F /  9.7 °C 36.5 °F /  2.5 °C 30.06in /  1017.8hPa SW 5.9mph /  9.5km/h 11.5mph /  18.5km/h 61% 0.00in /  0mm 346.0 W/m2
14:23 49.7 °F /  9.8 °C 36.8 °F /  2.7 °C 30.06in /  1017.8hPa SW 7.7mph /  12.4km/h 12.7mph /  20.4km/h 61% 0.00in /  0mm 304.0 W/m2
14:28 49.7 °F /  9.8 °C 36.8 °F /  2.7 °C 30.06in /  1017.8hPa South 8.6mph /  13.8km/h 11.5mph /  18.5km/h 61% 0.00in /  0mm 265.0 W/m2
14:33 49.8 °F /  9.9 °C 36.5 °F /  2.5 °C 30.06in /  1017.8hPa SSW 10.3mph /  16.6km/h 15.0mph /  24.1km/h 60% 0.00in /  0mm 251.0 W/m2
14:38 49.8 °F /  9.9 °C 36.5 °F /  2.5 °C 30.05in /  1017.5hPa WSW 10.6mph /  17.1km/h 13.8mph /  22.2km/h 60% 0.00in /  0mm 202.0 W/m2
14:43 50.1 °F /  10.1 °C 36.7 °F /  2.6 °C 30.05in /  1017.5hPa WSW 7.6mph /  12.2km/h 11.5mph /  18.5km/h 60% 0.00in /  0mm 91.0 W/m2
14:48 50.2 °F /  10.1 °C 36.8 °F /  2.7 °C 30.05in /  1017.5hPa SW 3.7mph /  6km/h 6.9mph /  11.1km/h 60% 0.00in /  0mm 174.0 W/m2
14:53 50.4 °F /  10.2 °C 37.0 °F /  2.8 °C 30.04in /  1017.2hPa South 3.9mph /  6.3km/h 6.9mph /  11.1km/h 60% 0.00in /  0mm 151.0 W/m2
14:58 50.2 °F /  10.1 °C 36.8 °F /  2.7 °C 30.04in /  1017.2hPa WSW 5.9mph /  9.5km/h 6.9mph /  11.1km/h 60% 0.00in /  0mm 171.0 W/m2
15:03 49.5 °F /  9.7 °C 36.6 °F /  2.6 °C 30.04in /  1017.2hPa SW 4.6mph /  7.4km/h 6.9mph /  11.1km/h 61% 0.00in /  0mm 174.0 W/m2
15:08 49.4 °F /  9.7 °C 36.5 °F /  2.5 °C 30.04in /  1017.2hPa SW 6.8mph /  10.9km/h 9.2mph /  14.8km/h 61% 0.00in /  0mm 149.0 W/m2
15:13 49.4 °F /  9.7 °C 36.5 °F /  2.5 °C 30.04in /  1017.2hPa SSW 6.0mph /  9.7km/h 8.1mph /  13km/h 61% 0.00in /  0mm 127.0 W/m2
15:18 49.2 °F /  9.6 °C 36.3 °F /  2.4 °C 30.03in /  1016.8hPa SSW 6.7mph /  10.8km/h 9.2mph /  14.8km/h 61% 0.00in /  0mm 125.0 W/m2
15:23 48.9 °F /  9.4 °C 36.4 °F /  2.4 °C 30.03in /  1016.8hPa SSW 7.0mph /  11.3km/h 12.7mph /  20.4km/h 62% 0.00in /  0mm 121.0 W/m2
15:28 48.7 °F /  9.3 °C 36.3 °F /  2.4 °C 30.03in /  1016.8hPa SW 6.1mph /  9.8km/h 11.5mph /  18.5km/h 62% 0.00in /  0mm 241.0 W/m2
15:33 49.1 °F /  9.5 °C 36.6 °F /  2.6 °C 30.03in /  1016.8hPa SW 6.0mph /  9.7km/h 11.5mph /  18.5km/h 62% 0.00in /  0mm 297.0 W/m2
15:38 49.5 °F /  9.7 °C 37.0 °F /  2.8 °C 30.03in /  1016.8hPa WSW 8.9mph /  14.3km/h 13.0mph /  20.9km/h 62% 0.00in /  0mm 218.0 W/m2
15:43 49.5 °F /  9.7 °C 37.0 °F /  2.8 °C 30.03in /  1016.8hPa SW 4.3mph /  6.9km/h 7.0mph /  11.3km/h 62% 0.00in /  0mm 239.0 W/m2
15:48 49.5 °F /  9.7 °C 37.0 °F /  2.8 °C 30.03in /  1016.8hPa SW 8.2mph /  13.2km/h 13.8mph /  22.2km/h 62% 0.00in /  0mm 246.0 W/m2
15:53 49.4 °F /  9.7 °C 36.9 °F /  2.7 °C 30.03in /  1016.8hPa SSE 5.5mph /  8.9km/h 8.1mph /  13km/h 62% 0.00in /  0mm 241.0 W/m2
15:58 49.5 °F /  9.7 °C 37.0 °F /  2.8 °C 30.02in /  1016.5hPa SW 6.8mph /  10.9km/h 11.5mph /  18.5km/h 62% 0.00in /  0mm 216.0 W/m2
16:03 49.3 °F /  9.6 °C 36.8 °F /  2.7 °C 30.02in /  1016.5hPa SSW 7.8mph /  12.6km/h 11.5mph /  18.5km/h 62% 0.00in /  0mm 42.0 W/m2
16:08 48.9 °F /  9.4 °C 36.9 °F /  2.7 °C 30.02in /  1016.5hPa South 5.0mph /  8km/h 8.1mph /  13km/h 63% 0.00in /  0mm 51.0 W/m2
16:13 48.8 °F /  9.3 °C 36.8 °F /  2.7 °C 30.02in /  1016.5hPa SW 7.8mph /  12.6km/h 18.4mph /  29.6km/h 63% 0.00in /  0mm 169.0 W/m2
16:18 48.8 °F /  9.3 °C 37.2 °F /  2.9 °C 30.02in /  1016.5hPa SW 6.3mph /  10.1km/h 9.2mph /  14.8km/h 64% 0.00in /  0mm 153.0 W/m2
16:23 48.8 °F /  9.3 °C 37.2 °F /  2.9 °C 30.02in /  1016.5hPa SW 3.4mph /  5.5km/h 6.9mph /  11.1km/h 64% 0.00in /  0mm 127.0 W/m2
16:28 48.8 °F /  9.3 °C 37.2 °F /  2.9 °C 30.02in /  1016.5hPa SW 6.6mph /  10.6km/h 11.0mph /  17.7km/h 64% 0.00in /  0mm 118.0 W/m2
16:33 48.6 °F /  9.2 °C 37.0 °F /  2.8 °C 30.02in /  1016.5hPa South 6.0mph /  9.7km/h 6.0mph /  9.7km/h 64% 0.00in /  0mm 98.0 W/m2
16:38 48.3 °F /  9.1 °C 36.7 °F /  2.6 °C 30.01in /  1016.1hPa SSW 5.1mph /  8.2km/h 6.9mph /  11.1km/h 64% 0.00in /  0mm 79.0 W/m2
16:43 48.1 °F /  8.9 °C 36.9 °F /  2.7 °C 30.01in /  1016.1hPa WSW 4.6mph /  7.4km/h 10.4mph /  16.7km/h 65% 0.00in /  0mm 65.0 W/m2
16:48 48.1 °F /  8.9 °C 36.9 °F /  2.7 °C 30.01in /  1016.1hPa SW 4.3mph /  6.9km/h 5.0mph /  8km/h 65% 0.00in /  0mm 49.0 W/m2
16:53 47.9 °F /  8.8 °C 36.7 °F /  2.6 °C 30.01in /  1016.1hPa SW 5.1mph /  8.2km/h 5.1mph /  8.2km/h 65% 0.00in /  0mm 33.0 W/m2
16:58 47.7 °F /  8.7 °C 36.5 °F /  2.5 °C 30.01in /  1016.1hPa SW 2.7mph /  4.3km/h 4.6mph /  7.4km/h 65% 0.00in /  0mm 16.0 W/m2
17:03 47.5 °F /  8.6 °C 36.7 °F /  2.6 °C 30.01in /  1016.1hPa SSE 4.4mph /  7.1km/h 5.0mph /  8km/h 66% 0.00in /  0mm 12.0 W/m2
17:08 47.4 °F /  8.6 °C 36.6 °F /  2.6 °C 30.01in /  1016.1hPa WSW 4.8mph /  7.7km/h 5.0mph /  8km/h 66% 0.00in /  0mm 11.0 W/m2
17:13 47.0 °F /  8.3 °C 36.2 °F /  2.3 °C 30.01in /  1016.1hPa SSW 3.6mph /  5.8km/h 6.9mph /  11.1km/h 66% 0.00in /  0mm 7.0 W/m2
17:18 46.8 °F /  8.2 °C 36.4 °F /  2.4 °C 30.01in /  1016.1hPa South 2.3mph /  3.7km/h 6.0mph /  9.7km/h 67% 0.00in /  0mm 0.0 W/m2
17:23 46.5 °F /  8.1 °C 36.1 °F /  2.3 °C 30.01in /  1016.1hPa SSE 4.7mph /  7.6km/h 6.9mph /  11.1km/h 67% 0.00in /  0mm 0.0 W/m2
17:28 46.3 °F /  7.9 °C 35.9 °F /  2.2 °C 30.01in /  1016.1hPa SW 4.6mph /  7.4km/h 6.0mph /  9.7km/h 67% 0.00in /  0mm 0.0 W/m2
17:33 46.0 °F /  7.8 °C 35.7 °F /  2.1 °C 30.01in /  1016.1hPa SW 4.0mph /  6.4km/h 4.0mph /  6.4km/h 67% 0.00in /  0mm 0.0 W/m2
17:38 45.8 °F /  7.7 °C 35.8 °F /  2.1 °C 30.01in /  1016.1hPa SSW 3.6mph /  5.8km/h 4.6mph /  7.4km/h 68% 0.00in /  0mm 0.0 W/m2
17:43 45.6 °F /  7.6 °C 35.6 °F /  2 °C 30.01in /  1016.1hPa SSW 4.6mph /  7.4km/h 6.0mph /  9.7km/h 68% 0.00in /  0mm 0.0 W/m2
17:48 45.3 °F /  7.4 °C 35.7 °F /  2.1 °C 30.01in /  1016.1hPa SSW 2.7mph /  4.3km/h 3.5mph /  5.6km/h 69% 0.00in /  0mm 0.0 W/m2
17:54 45.2 °F /  7.3 °C 35.6 °F /  2 °C 30.01in /  1016.1hPa SSW 3.3mph /  5.3km/h 5.8mph /  9.3km/h 69% 0.00in /  0mm 0.0 W/m2
17:59 45.0 °F /  7.2 °C 35.4 °F /  1.9 °C 30.01in /  1016.1hPa SW 2.2mph /  3.5km/h 3.5mph /  5.6km/h 69% 0.00in /  0mm 0.0 W/m2
18:04 44.9 °F /  7.2 °C 35.3 °F /  1.8 °C 30.01in /  1016.1hPa SSW 3.2mph /  5.1km/h 4.6mph /  7.4km/h 69% 0.00in /  0mm 0.0 W/m2
18:09 44.9 °F /  7.2 °C 35.3 °F /  1.8 °C 30.01in /  1016.1hPa SSE 1.3mph /  2.1km/h 3.5mph /  5.6km/h 69% 0.00in /  0mm 0.0 W/m2
18:14 44.8 °F /  7.1 °C 35.6 °F /  2 °C 30.01in /  1016.1hPa South 2.8mph /  4.5km/h 3.5mph /  5.6km/h 70% 0.00in /  0mm 0.0 W/m2
18:19 44.8 °F /  7.1 °C 35.2 °F /  1.8 °C 30.01in /  1016.1hPa South 1.0mph /  1.6km/h 2.3mph /  3.7km/h 69% 0.00in /  0mm 0.0 W/m2
18:24 44.6 °F /  7 °C 35.1 °F /  1.7 °C 30.01in /  1016.1hPa SSE 2.1mph /  3.4km/h 4.0mph /  6.4km/h 69% 0.00in /  0mm 0.0 W/m2
18:29 44.4 °F /  6.9 °C 35.2 °F /  1.8 °C 30.01in /  1016.1hPa SE 1.7mph /  2.7km/h 3.5mph /  5.6km/h 70% 0.00in /  0mm 0.0 W/m2
18:34 44.3 °F /  6.8 °C 35.1 °F /  1.7 °C 30.01in /  1016.1hPa SE 1.5mph /  2.4km/h 2.3mph /  3.7km/h 70% 0.00in /  0mm 0.0 W/m2
18:39 44.1 °F /  6.7 °C 34.9 °F /  1.6 °C 30.01in /  1016.1hPa SE 2.0mph /  3.2km/h 3.5mph /  5.6km/h 70% 0.00in /  0mm 0.0 W/m2
18:44 44.0 °F /  6.7 °C 35.2 °F /  1.8 °C 30.01in /  1016.1hPa SE 2.1mph /  3.4km/h 3.5mph /  5.6km/h 71% 0.00in /  0mm 0.0 W/m2
18:49 43.8 °F /  6.6 °C 35.0 °F /  1.7 °C 30.01in /  1016.1hPa SE 1.8mph /  2.9km/h 2.3mph /  3.7km/h 71% 0.00in /  0mm 0.0 W/m2
18:54 43.6 °F /  6.4 °C 35.2 °F /  1.8 °C 30.01in /  1016.1hPa SE 1.1mph /  1.8km/h 2.3mph /  3.7km/h 72% 0.00in /  0mm 0.0 W/m2
18:59 43.4 °F /  6.3 °C 35.0 °F /  1.7 °C 30.01in /  1016.1hPa SE 1.8mph /  2.9km/h 2.3mph /  3.7km/h 72% 0.00in /  0mm 0.0 W/m2
19:04 43.3 °F /  6.3 °C 34.9 °F /  1.6 °C 30.01in /  1016.1hPa SE 1.8mph /  2.9km/h 2.3mph /  3.7km/h 72% 0.00in /  0mm 0.0 W/m2
19:09 43.1 °F /  6.2 °C 35.0 °F /  1.7 °C 30.01in /  1016.1hPa SE 2.1mph /  3.4km/h 3.5mph /  5.6km/h 73% 0.00in /  0mm 0.0 W/m2
19:14 43.0 °F /  6.1 °C 34.9 °F /  1.6 °C 30.01in /  1016.1hPa SE 1.4mph /  2.3km/h 2.3mph /  3.7km/h 73% 0.00in /  0mm 0.0 W/m2
19:19 42.9 °F /  6.1 °C 35.2 °F /  1.8 °C 30.01in /  1016.1hPa SE 1.7mph /  2.7km/h 3.0mph /  4.8km/h 74% 0.00in /  0mm 0.0 W/m2
19:24 42.8 °F /  6 °C 35.1 °F /  1.7 °C 30.01in /  1016.1hPa SE 1.5mph /  2.4km/h 2.3mph /  3.7km/h 74% 0.00in /  0mm 0.0 W/m2
19:29 42.8 °F /  6 °C 35.1 °F /  1.7 °C 30.00in /  1015.8hPa SE 1.6mph /  2.6km/h 3.5mph /  5.6km/h 74% 0.00in /  0mm 0.0 W/m2
19:34 42.7 °F /  5.9 °C 35.0 °F /  1.7 °C 30.01in /  1016.1hPa SE 1.2mph /  1.9km/h 2.3mph /  3.7km/h 74% 0.00in /  0mm 0.0 W/m2
19:39 42.7 °F /  5.9 °C 35.3 °F /  1.8 °C 30.01in /  1016.1hPa SE 1.4mph /  2.3km/h 2.3mph /  3.7km/h 75% 0.00in /  0mm 0.0 W/m2
19:44 42.6 °F /  5.9 °C 35.2 °F /  1.8 °C 30.00in /  1015.8hPa SE 1.7mph /  2.7km/h 3.5mph /  5.6km/h 75% 0.00in /  0mm 0.0 W/m2
19:49 42.5 °F /  5.8 °C 35.1 °F /  1.7 °C 30.00in /  1015.8hPa SE 2.6mph /  4.2km/h 3.5mph /  5.6km/h 75% 0.00in /  0mm 0.0 W/m2
19:54 42.4 °F /  5.8 °C 35.0 °F /  1.7 °C 30.00in /  1015.8hPa SE 3.3mph /  5.3km/h 3.5mph /  5.6km/h 75% 0.00in /  0mm 0.0 W/m2
19:59 42.3 °F /  5.7 °C 34.9 °F /  1.6 °C 30.00in /  1015.8hPa SE 1.9mph /  3.1km/h 3.5mph /  5.6km/h 75% 0.00in /  0mm 0.0 W/m2
20:04 42.2 °F /  5.7 °C 35.2 °F /  1.8 °C 30.00in /  1015.8hPa SE 2.5mph /  4km/h 3.5mph /  5.6km/h 76% 0.00in /  0mm 0.0 W/m2
20:09 42.1 °F /  5.6 °C 35.1 °F /  1.7 °C 30.00in /  1015.8hPa ESE 1.8mph /  2.9km/h 3.5mph /  5.6km/h 76% 0.00in /  0mm 0.0 W/m2
20:14 42.0 °F /  5.6 °C 35.0 °F /  1.7 °C 30.00in /  1015.8hPa SSE 2.0mph /  3.2km/h 3.5mph /  5.6km/h 76% 0.00in /  0mm 0.0 W/m2
20:19 41.9 °F /  5.5 °C 34.9 °F /  1.6 °C 29.99in /  1015.5hPa SE 1.6mph /  2.6km/h 3.5mph /  5.6km/h 76% 0.00in /  0mm 0.0 W/m2
20:24 41.8 °F /  5.4 °C 34.8 °F /  1.6 °C 30.00in /  1015.8hPa SE 1.3mph /  2.1km/h 3.5mph /  5.6km/h 76% 0.00in /  0mm 0.0 W/m2
20:29 41.6 °F /  5.3 °C 34.6 °F /  1.4 °C 30.00in /  1015.8hPa SE 1.9mph /  3.1km/h 2.3mph /  3.7km/h 76% 0.00in /  0mm 0.0 W/m2
20:34 41.4 °F /  5.2 °C 34.7 °F /  1.5 °C 30.00in /  1015.8hPa SSE 3.4mph /  5.5km/h 3.5mph /  5.6km/h 77% 0.00in /  0mm 0.0 W/m2
20:39 41.3 °F /  5.2 °C 34.6 °F /  1.4 °C 30.00in /  1015.8hPa South 2.7mph /  4.3km/h 3.5mph /  5.6km/h 77% 0.00in /  0mm 0.0 W/m2
20:44 41.2 °F /  5.1 °C 34.9 °F /  1.6 °C 30.00in /  1015.8hPa SSE 1.3mph /  2.1km/h 2.3mph /  3.7km/h 78% 0.00in /  0mm 0.0 W/m2
20:49 41.1 °F /  5.1 °C 34.8 °F /  1.6 °C 30.00in /  1015.8hPa SSE 1.4mph /  2.3km/h 2.3mph /  3.7km/h 78% 0.00in /  0mm 0.0 W/m2
20:54 41.0 °F /  5 °C 34.7 °F /  1.5 °C 30.00in /  1015.8hPa SE 1.9mph /  3.1km/h 3.5mph /  5.6km/h 78% 0.00in /  0mm 0.0 W/m2
21:00 40.9 °F /  4.9 °C 34.6 °F /  1.4 °C 30.00in /  1015.8hPa SSE 1.8mph /  2.9km/h 3.5mph /  5.6km/h 78% 0.00in /  0mm 0.0 W/m2
21:05 40.8 °F /  4.9 °C 34.5 °F /  1.4 °C 30.00in /  1015.8hPa South 3.3mph /  5.3km/h 4.0mph /  6.4km/h 78% 0.00in /  0mm 0.0 W/m2
21:10 40.7 °F /  4.8 °C 34.7 °F /  1.5 °C 30.00in /  1015.8hPa SE 2.3mph /  3.7km/h 3.5mph /  5.6km/h 79% 0.00in /  0mm 0.0 W/m2
21:15 40.6 °F /  4.8 °C 34.6 °F /  1.4 °C 29.99in /  1015.5hPa South 2.4mph /  3.9km/h 3.5mph /  5.6km/h 79% 0.00in /  0mm 0.0 W/m2
21:20 40.6 °F /  4.8 °C 34.6 °F /  1.4 °C 29.99in /  1015.5hPa SSE 2.2mph /  3.5km/h 3.5mph /  5.6km/h 79% 0.00in /  0mm 0.0 W/m2
21:25 40.6 °F /  4.8 °C 34.6 °F /  1.4 °C 29.99in /  1015.5hPa SE 2.1mph /  3.4km/h 3.5mph /  5.6km/h 79% 0.00in /  0mm 0.0 W/m2
21:30 40.4 °F /  4.7 °C 34.4 °F /  1.3 °C 29.98in /  1015.1hPa SE 2.4mph /  3.9km/h 3.5mph /  5.6km/h 79% 0.00in /  0mm 0.0 W/m2
21:35 40.4 °F /  4.7 °C 34.7 °F /  1.5 °C 29.99in /  1015.5hPa SE 2.6mph /  4.2km/h 3.5mph /  5.6km/h 80% 0.00in /  0mm 0.0 W/m2
21:40 40.2 °F /  4.6 °C 34.5 °F /  1.4 °C 29.99in /  1015.5hPa SSE 2.8mph /  4.5km/h 3.5mph /  5.6km/h 80% 0.00in /  0mm 0.0 W/m2
21:45 40.1 °F /  4.5 °C 34.4 °F /  1.3 °C 29.99in /  1015.5hPa SSE 2.7mph /  4.3km/h 4.6mph /  7.4km/h 80% 0.00in /  0mm 0.0 W/m2
21:50 40.1 °F /  4.5 °C 34.7 °F /  1.5 °C 29.99in /  1015.5hPa SSE 2.6mph /  4.2km/h 3.5mph /  5.6km/h 81% 0.00in /  0mm 0.0 W/m2
21:55 40.0 °F /  4.4 °C 34.6 °F /  1.4 °C 29.98in /  1015.1hPa SE 3.0mph /  4.8km/h 4.0mph /  6.4km/h 81% 0.00in /  0mm 0.0 W/m2
22:00 39.9 °F /  4.4 °C 34.5 °F /  1.4 °C 29.98in /  1015.1hPa SE 1.6mph /  2.6km/h 2.3mph /  3.7km/h 81% 0.00in /  0mm 0.0 W/m2
22:05 39.8 °F /  4.3 °C 34.4 °F /  1.3 °C 29.98in /  1015.1hPa SE 1.8mph /  2.9km/h 3.5mph /  5.6km/h 81% 0.00in /  0mm 0.0 W/m2
22:10 39.7 °F /  4.3 °C 34.3 °F /  1.3 °C 29.98in /  1015.1hPa SE 2.3mph /  3.7km/h 3.5mph /  5.6km/h 81% 0.00in /  0mm 0.0 W/m2
22:15 39.6 °F /  4.2 °C 34.6 °F /  1.4 °C 29.97in /  1014.8hPa SE 2.0mph /  3.2km/h 3.5mph /  5.6km/h 82% 0.00in /  0mm 0.0 W/m2
22:20 39.5 °F /  4.2 °C 34.5 °F /  1.4 °C 29.97in /  1014.8hPa SE 2.8mph /  4.5km/h 3.5mph /  5.6km/h 82% 0.00in /  0mm 0.0 W/m2
22:25 39.4 °F /  4.1 °C 34.7 °F /  1.5 °C 29.97in /  1014.8hPa SSE 2.9mph /  4.7km/h 3.5mph /  5.6km/h 83% 0.00in /  0mm 0.0 W/m2
22:30 39.4 °F /  4.1 °C 34.7 °F /  1.5 °C 29.97in /  1014.8hPa SE 2.5mph /  4km/h 3.5mph /  5.6km/h 83% 0.00in /  0mm 0.0 W/m2
22:35 39.4 °F /  4.1 °C 34.7 °F /  1.5 °C 29.97in /  1014.8hPa South 2.2mph /  3.5km/h 3.5mph /  5.6km/h 83% 0.00in /  0mm 0.0 W/m2
22:40 39.5 °F /  4.2 °C 34.8 °F /  1.6 °C 29.97in /  1014.8hPa SSE 2.8mph /  4.5km/h 4.0mph /  6.4km/h 83% 0.00in /  0mm 0.0 W/m2
22:45 39.5 °F /  4.2 °C 34.8 °F /  1.6 °C 29.96in /  1014.4hPa SE 3.1mph /  5km/h 3.5mph /  5.6km/h 83% 0.00in /  0mm 0.0 W/m2
22:50 39.4 °F /  4.1 °C 35.0 °F /  1.7 °C 29.96in /  1014.4hPa SSE 2.7mph /  4.3km/h 3.5mph /  5.6km/h 84% 0.00in /  0mm 0.0 W/m2
22:55 39.4 °F /  4.1 °C 35.0 °F /  1.7 °C 29.96in /  1014.4hPa SE 2.4mph /  3.9km/h 3.5mph /  5.6km/h 84% 0.00in /  0mm 0.0 W/m2
23:00 39.3 °F /  4.1 °C 34.9 °F /  1.6 °C 29.96in /  1014.4hPa SSE 1.9mph /  3.1km/h 2.3mph /  3.7km/h 84% 0.00in /  0mm 0.0 W/m2
23:05 39.4 °F /  4.1 °C 35.0 °F /  1.7 °C 29.96in /  1014.4hPa SSE 2.1mph /  3.4km/h 4.6mph /  7.4km/h 84% 0.00in /  0mm 0.0 W/m2
23:10 39.4 °F /  4.1 °C 35.0 °F /  1.7 °C 29.96in /  1014.4hPa South 1.6mph /  2.6km/h 3.5mph /  5.6km/h 84% 0.00in /  0mm 0.0 W/m2
23:16 39.3 °F /  4.1 °C 34.9 °F /  1.6 °C 29.96in /  1014.4hPa South 1.7mph /  2.7km/h 2.3mph /  3.7km/h 84% 0.00in /  0mm 0.0 W/m2
23:21 39.3 °F /  4.1 °C 34.9 °F /  1.6 °C 29.96in /  1014.4hPa South 1.3mph /  2.1km/h 3.5mph /  5.6km/h 84% 0.00in /  0mm 0.0 W/m2
23:26 39.3 °F /  4.1 °C 34.9 °F /  1.6 °C 29.96in /  1014.4hPa SSE 2.7mph /  4.3km/h 4.0mph /  6.4km/h 84% 0.00in /  0mm 0.0 W/m2
23:31 39.2 °F /  4 °C 34.8 °F /  1.6 °C 29.96in /  1014.4hPa SSE 2.6mph /  4.2km/h 3.5mph /  5.6km/h 84% 0.00in /  0mm 0.0 W/m2
23:36 39.2 °F /  4 °C 35.1 °F /  1.7 °C 29.96in /  1014.4hPa SE 2.2mph /  3.5km/h 3.5mph /  5.6km/h 85% 0.00in /  0mm 0.0 W/m2
23:41 39.2 °F /  4 °C 35.1 °F /  1.7 °C 29.96in /  1014.4hPa SE 3.0mph /  4.8km/h 3.5mph /  5.6km/h 85% 0.00in /  0mm 0.0 W/m2
23:46 39.1 °F /  3.9 °C 35.0 °F /  1.7 °C 29.96in /  1014.4hPa SSE 2.1mph /  3.4km/h 3.5mph /  5.6km/h 85% 0.00in /  0mm 0.0 W/m2
23:51 39.1 °F /  3.9 °C 35.0 °F /  1.7 °C 29.95in /  1014.1hPa SE 1.1mph /  1.8km/h 2.3mph /  3.7km/h 85% 0.00in /  0mm 0.0 W/m2
23:56 39.2 °F /  4 °C 35.1 °F /  1.7 °C 29.95in /  1014.1hPa SE 1.3mph /  2.1km/h 2.3mph /  3.7km/h 85% 0.00in /  0mm 0.0 W/m2
Juneau County Weather
Compliments of Weather Underground - 3 mb